YZR7919 ZSNJ-ZWWW
Flight info
| Callsign | YZR7919 |
|---|---|
| Flight time | 4h 36m |
| Altitude | 34100 |
| Route | HFE B208 TAMIX W4 LIMGI W152 SHX ZS OLMEK DOVOP W541 OVKAB W94 XFG W213 APESU W197 ANDIM B215 IBANO G470 QTV W99 FKG |
| Aircraft | B77L/H-SDE2E3FGILRWXY/LB2 |
Departure
| Time | 2026-04-28 01:10 |
|---|---|
| Airport | Nanjing Lukou International Airport (ZSNJ) |
Arrival
| Time | 2026-04-28 05:47 |
|---|---|
| Airport | Ürümqi Tianshan International Airport (ZWWW) |
| Time | Latitude | Longitude | Altitude | Speed | Heading |
|---|---|---|---|---|---|
| 2026-04-28 00:21 | 31.74254 | 118.87054 | 63 ft | 0 kts | 148° |
| 2026-04-28 00:56 | 31.74257 | 118.87051 | 63 ft | 2 kts | 148° |
| 2026-04-28 00:56 | 31.74270 | 118.87042 | 63 ft | 2 kts | 148° |
| 2026-04-28 00:56 | 31.74282 | 118.87033 | 63 ft | 2 kts | 148° |
| 2026-04-28 00:57 | 31.74295 | 118.87023 | 63 ft | 2 kts | 148° |
| 2026-04-28 00:57 | 31.74309 | 118.87017 | 63 ft | 2 kts | 174° |
| 2026-04-28 00:57 | 31.74323 | 118.87018 | 63 ft | 2 kts | 196° |
| 2026-04-28 00:57 | 31.74337 | 118.87025 | 63 ft | 2 kts | 217° |
| 2026-04-28 00:58 | 31.74346 | 118.87035 | 63 ft | 0 kts | 237° |
| 2026-04-28 00:58 | 31.74349 | 118.87041 | 63 ft | 0 kts | 239° |
| 2026-04-28 01:01 | 31.74349 | 118.87040 | 63 ft | 0 kts | 239° |
| 2026-04-28 01:01 | 31.74344 | 118.87030 | 63 ft | 2 kts | 239° |
| 2026-04-28 01:02 | 31.74331 | 118.87007 | 63 ft | 4 kts | 239° |
| 2026-04-28 01:02 | 31.74313 | 118.86970 | 63 ft | 5 kts | 243° |
| 2026-04-28 01:02 | 31.74324 | 118.86921 | 63 ft | 7 kts | 321° |
| 2026-04-28 01:02 | 31.74353 | 118.86868 | 63 ft | 8 kts | 270° |
| 2026-04-28 01:03 | 31.74327 | 118.86797 | 63 ft | 10 kts | 238° |
| 2026-04-28 01:03 | 31.74287 | 118.86722 | 63 ft | 11 kts | 238° |
| 2026-04-28 01:03 | 31.74243 | 118.86637 | 63 ft | 12 kts | 238° |
| 2026-04-28 01:03 | 31.74194 | 118.86549 | 63 ft | 13 kts | 237° |
| 2026-04-28 01:04 | 31.74142 | 118.86453 | 63 ft | 14 kts | 238° |
| 2026-04-28 01:04 | 31.74088 | 118.86351 | 63 ft | 14 kts | 238° |
| 2026-04-28 01:04 | 31.74032 | 118.86247 | 63 ft | 15 kts | 238° |
| 2026-04-28 01:04 | 31.73974 | 118.86137 | 63 ft | 16 kts | 238° |
| 2026-04-28 01:05 | 31.73915 | 118.86025 | 63 ft | 16 kts | 238° |
| 2026-04-28 01:05 | 31.73853 | 118.85910 | 63 ft | 16 kts | 238° |
| 2026-04-28 01:05 | 31.73788 | 118.85790 | 63 ft | 17 kts | 238° |
| 2026-04-28 01:05 | 31.73724 | 118.85670 | 63 ft | 17 kts | 238° |
| 2026-04-28 01:06 | 31.73658 | 118.85546 | 63 ft | 17 kts | 238° |
| 2026-04-28 01:06 | 31.73592 | 118.85422 | 63 ft | 18 kts | 238° |
| 2026-04-28 01:06 | 31.73524 | 118.85295 | 63 ft | 18 kts | 238° |
| 2026-04-28 01:06 | 31.73456 | 118.85167 | 63 ft | 18 kts | 238° |
| 2026-04-28 01:07 | 31.73387 | 118.85036 | 63 ft | 18 kts | 238° |
| 2026-04-28 01:07 | 31.73317 | 118.84905 | 63 ft | 18 kts | 238° |
| 2026-04-28 01:07 | 31.73253 | 118.84787 | 63 ft | 9 kts | 238° |
| 2026-04-28 01:07 | 31.73230 | 118.84737 | 63 ft | 7 kts | 256° |
| 2026-04-28 01:08 | 31.73254 | 118.84679 | 63 ft | 9 kts | 321° |
| 2026-04-28 01:08 | 31.73313 | 118.84637 | 63 ft | 10 kts | 329° |
| 2026-04-28 01:08 | 31.73365 | 118.84626 | 63 ft | 8 kts | 25° |
| 2026-04-28 01:08 | 31.73407 | 118.84679 | 63 ft | 9 kts | 59° |
| 2026-04-28 01:09 | 31.73416 | 118.84697 | 63 ft | 0 kts | 58° |
| 2026-04-28 01:09 | 31.73425 | 118.84714 | 63 ft | 14 kts | 58° |
| 2026-04-28 01:09 | 31.73599 | 118.85041 | 63 ft | 80 kts | 58° |
| 2026-04-28 01:09 | 31.74008 | 118.85802 | 63 ft | 139 kts | 58° |
| 2026-04-28 01:10 | 31.74612 | 118.86935 | 127 ft | 181 kts | 60° |
| 2026-04-28 01:10 | 31.75316 | 118.88255 | 626 ft | 195 kts | 58° |
| 2026-04-28 01:10 | 31.75988 | 118.89504 | 1827 ft | 173 kts | 60° |
| 2026-04-28 01:10 | 31.76604 | 118.90671 | 2432 ft | 174 kts | 59° |
| 2026-04-28 01:11 | 31.77276 | 118.91935 | 2696 ft | 193 kts | 58° |
| 2026-04-28 01:11 | 31.78003 | 118.93299 | 3186 ft | 201 kts | 57° |
| 2026-04-28 01:11 | 31.78742 | 118.94685 | 3867 ft | 202 kts | 58° |
| 2026-04-28 01:11 | 31.79485 | 118.96079 | 4447 ft | 206 kts | 58° |
| 2026-04-28 01:12 | 31.80258 | 118.97530 | 4981 ft | 211 kts | 58° |
| 2026-04-28 01:12 | 31.81035 | 118.98991 | 5529 ft | 215 kts | 57° |
| 2026-04-28 01:12 | 31.81834 | 119.00494 | 6129 ft | 217 kts | 58° |
| 2026-04-28 01:12 | 31.82636 | 119.02003 | 6670 ft | 222 kts | 57° |
| 2026-04-28 01:13 | 31.83471 | 119.03573 | 6845 ft | 228 kts | 57° |
| 2026-04-28 01:13 | 31.85154 | 119.06743 | 6861 ft | 228 kts | 57° |
| 2026-04-28 01:13 | 31.85988 | 119.08315 | 6858 ft | 228 kts | 57° |
| 2026-04-28 01:14 | 31.86823 | 119.09888 | 6876 ft | 228 kts | 57° |
| 2026-04-28 01:14 | 31.87778 | 119.11375 | 6866 ft | 227 kts | 40° |
| 2026-04-28 01:14 | 31.89124 | 119.12324 | 6846 ft | 227 kts | 19° |
| 2026-04-28 01:14 | 31.90692 | 119.12603 | 6868 ft | 229 kts | 358° |
| 2026-04-28 01:15 | 31.92240 | 119.12157 | 6839 ft | 231 kts | 336° |
| 2026-04-28 01:15 | 31.93536 | 119.11034 | 6846 ft | 237 kts | 314° |
| 2026-04-28 01:15 | 31.94379 | 119.09365 | 6856 ft | 243 kts | 291° |
| 2026-04-28 01:15 | 31.94625 | 119.07348 | 6868 ft | 253 kts | 274° |
| 2026-04-28 01:16 | 31.94569 | 119.05275 | 6851 ft | 255 kts | 262° |
| 2026-04-28 01:16 | 31.93936 | 119.03320 | 6880 ft | 267 kts | 242° |
| 2026-04-28 01:16 | 31.92935 | 119.01363 | 6878 ft | 290 kts | 239° |
| 2026-04-28 01:16 | 31.91842 | 118.99321 | 6863 ft | 293 kts | 239° |
| 2026-04-28 01:17 | 31.90755 | 118.97285 | 6863 ft | 294 kts | 239° |
| 2026-04-28 01:17 | 31.89673 | 118.95248 | 6856 ft | 293 kts | 239° |
| 2026-04-28 01:17 | 31.88582 | 118.93190 | 6855 ft | 297 kts | 239° |
| 2026-04-28 01:17 | 31.87466 | 118.91087 | 7394 ft | 303 kts | 239° |
| 2026-04-28 01:18 | 31.86393 | 118.89067 | 8407 ft | 292 kts | 239° |
| 2026-04-28 01:18 | 31.85326 | 118.87045 | 9212 ft | 288 kts | 243° |
| 2026-04-28 01:18 | 31.84562 | 118.84914 | 9884 ft | 285 kts | 257° |
| 2026-04-28 01:18 | 31.84240 | 118.82620 | 10476 ft | 288 kts | 264° |
| 2026-04-28 01:19 | 31.84026 | 118.80222 | 10790 ft | 302 kts | 263° |
| 2026-04-28 01:19 | 31.83806 | 118.77692 | 11032 ft | 320 kts | 263° |
| 2026-04-28 01:19 | 31.83571 | 118.75022 | 11319 ft | 336 kts | 263° |
| 2026-04-28 01:19 | 31.83324 | 118.72235 | 11654 ft | 350 kts | 262° |
| 2026-04-28 01:20 | 31.83065 | 118.69343 | 11992 ft | 364 kts | 262° |
| 2026-04-28 01:20 | 31.82794 | 118.66322 | 12435 ft | 375 kts | 262° |
| 2026-04-28 01:20 | 31.82520 | 118.63250 | 13186 ft | 377 kts | 261° |
| 2026-04-28 01:20 | 31.82249 | 118.60232 | 13953 ft | 378 kts | 261° |
| 2026-04-28 01:21 | 31.81969 | 118.57131 | 14648 ft | 382 kts | 261° |
| 2026-04-28 01:21 | 31.81691 | 118.54057 | 15457 ft | 383 kts | 262° |
| 2026-04-28 01:21 | 31.81411 | 118.50970 | 16225 ft | 384 kts | 262° |
| 2026-04-28 01:21 | 31.81126 | 118.47835 | 16991 ft | 385 kts | 262° |
| 2026-04-28 01:22 | 31.80844 | 118.44747 | 17720 ft | 386 kts | 263° |
| 2026-04-28 01:22 | 31.80560 | 118.41634 | 18430 ft | 387 kts | 263° |
| 2026-04-28 01:22 | 31.80271 | 118.38480 | 19061 ft | 390 kts | 263° |
| 2026-04-28 01:22 | 31.79979 | 118.35307 | 19617 ft | 395 kts | 263° |
| 2026-04-28 01:23 | 31.79678 | 118.32045 | 20194 ft | 399 kts | 263° |
| 2026-04-28 01:23 | 31.79389 | 118.28812 | 20851 ft | 401 kts | 265° |
| 2026-04-28 01:23 | 31.79309 | 118.25582 | 21478 ft | 403 kts | 268° |
| 2026-04-28 01:23 | 31.79276 | 118.22282 | 22047 ft | 406 kts | 268° |
| 2026-04-28 01:24 | 31.79235 | 118.18954 | 22588 ft | 409 kts | 268° |
| 2026-04-28 01:24 | 31.79185 | 118.15614 | 23171 ft | 411 kts | 268° |
| 2026-04-28 01:24 | 31.79129 | 118.12261 | 23685 ft | 414 kts | 268° |
| 2026-04-28 01:24 | 31.79068 | 118.08888 | 24173 ft | 418 kts | 268° |
| 2026-04-28 01:25 | 31.79010 | 118.05437 | 24682 ft | 422 kts | 268° |
| 2026-04-28 01:25 | 31.78954 | 118.01986 | 25187 ft | 426 kts | 268° |
| 2026-04-28 01:25 | 31.78896 | 117.98519 | 25710 ft | 429 kts | 268° |
| 2026-04-28 01:25 | 31.78835 | 117.94994 | 26318 ft | 431 kts | 268° |
| 2026-04-28 01:26 | 31.78772 | 117.91471 | 26868 ft | 433 kts | 268° |
| 2026-04-28 01:26 | 31.78708 | 117.87933 | 27385 ft | 437 kts | 268° |
| 2026-04-28 01:26 | 31.78641 | 117.84364 | 27887 ft | 440 kts | 268° |
| 2026-04-28 01:26 | 31.78573 | 117.80773 | 28351 ft | 445 kts | 268° |
| 2026-04-28 01:27 | 31.78503 | 117.77129 | 28831 ft | 449 kts | 268° |
| 2026-04-28 01:27 | 31.78431 | 117.73463 | 29377 ft | 451 kts | 268° |
| 2026-04-28 01:27 | 31.78358 | 117.69808 | 30051 ft | 450 kts | 268° |
| 2026-04-28 01:27 | 31.78285 | 117.66171 | 30905 ft | 445 kts | 268° |
| 2026-04-28 01:28 | 31.78211 | 117.62560 | 31762 ft | 439 kts | 268° |
| 2026-04-28 01:28 | 31.78137 | 117.59023 | 32496 ft | 435 kts | 269° |
| 2026-04-28 01:28 | 31.78062 | 117.55463 | 33057 ft | 434 kts | 269° |
| 2026-04-28 01:28 | 31.77987 | 117.51933 | 33564 ft | 434 kts | 269° |
| 2026-04-28 01:29 | 31.77911 | 117.48416 | 34087 ft | 434 kts | 269° |
| 2026-04-28 01:29 | 31.77831 | 117.44791 | 34154 ft | 434 kts | 269° |
| 2026-04-28 01:29 | 31.77772 | 117.37661 | 34158 ft | 429 kts | 274° |
| 2026-04-28 01:30 | 31.78971 | 117.30763 | 34173 ft | 435 kts | 287° |
| 2026-04-28 01:30 | 31.81737 | 117.24389 | 34173 ft | 438 kts | 301° |
| 2026-04-28 01:31 | 31.85628 | 117.18828 | 34171 ft | 446 kts | 306° |
| 2026-04-28 01:31 | 31.89677 | 117.13271 | 34172 ft | 444 kts | 306° |
| 2026-04-28 01:32 | 31.93698 | 117.07719 | 34179 ft | 444 kts | 306° |
| 2026-04-28 01:32 | 31.97717 | 117.02149 | 34179 ft | 443 kts | 306° |
| 2026-04-28 01:33 | 32.01701 | 116.96632 | 34176 ft | 442 kts | 306° |
| 2026-04-28 01:33 | 32.05689 | 116.91108 | 34173 ft | 445 kts | 306° |
| 2026-04-28 01:34 | 32.09685 | 116.85562 | 34174 ft | 444 kts | 306° |
| 2026-04-28 01:34 | 32.13704 | 116.79976 | 34174 ft | 445 kts | 306° |
| 2026-04-28 01:35 | 32.17741 | 116.74355 | 34173 ft | 445 kts | 306° |
| 2026-04-28 01:35 | 32.21688 | 116.68760 | 34172 ft | 441 kts | 304° |
| 2026-04-28 01:36 | 32.25592 | 116.63126 | 34172 ft | 447 kts | 305° |
| 2026-04-28 01:36 | 32.29487 | 116.57507 | 34174 ft | 442 kts | 305° |
| 2026-04-28 01:37 | 32.33381 | 116.51881 | 34172 ft | 445 kts | 305° |
| 2026-04-28 01:37 | 32.37306 | 116.46204 | 34171 ft | 444 kts | 305° |
| 2026-04-28 01:38 | 32.41205 | 116.40559 | 34168 ft | 445 kts | 304° |
| 2026-04-28 01:38 | 32.45118 | 116.34885 | 34170 ft | 444 kts | 304° |
| 2026-04-28 01:39 | 32.49022 | 116.29215 | 34184 ft | 444 kts | 304° |
| 2026-04-28 01:39 | 32.52953 | 116.23498 | 34182 ft | 442 kts | 304° |
| 2026-04-28 01:40 | 32.56834 | 116.17844 | 34180 ft | 444 kts | 304° |
| 2026-04-28 01:40 | 32.60821 | 116.12222 | 34178 ft | 446 kts | 305° |
| 2026-04-28 01:41 | 32.64824 | 116.06599 | 34177 ft | 445 kts | 305° |
| 2026-04-28 01:41 | 32.68811 | 116.00984 | 34177 ft | 445 kts | 305° |
| 2026-04-28 01:42 | 32.72801 | 115.95352 | 34174 ft | 446 kts | 305° |
| 2026-04-28 01:42 | 32.76797 | 115.89700 | 34171 ft | 446 kts | 305° |
| 2026-04-28 01:43 | 32.80761 | 115.84086 | 34170 ft | 446 kts | 305° |
| 2026-04-28 01:43 | 32.84737 | 115.78444 | 34166 ft | 446 kts | 304° |
| 2026-04-28 01:44 | 32.88704 | 115.72808 | 34165 ft | 442 kts | 304° |
| 2026-04-28 01:44 | 32.92773 | 115.67240 | 34159 ft | 448 kts | 306° |
| 2026-04-28 01:45 | 32.96882 | 115.61642 | 34159 ft | 444 kts | 306° |
| 2026-04-28 01:45 | 33.00948 | 115.56084 | 34162 ft | 444 kts | 306° |
| 2026-04-28 01:46 | 33.04989 | 115.50546 | 34161 ft | 446 kts | 306° |
| 2026-04-28 01:46 | 33.09027 | 115.45003 | 34161 ft | 444 kts | 306° |
| 2026-04-28 01:47 | 33.13062 | 115.39456 | 34157 ft | 442 kts | 306° |
| 2026-04-28 01:47 | 33.17125 | 115.33860 | 34164 ft | 442 kts | 305° |
| 2026-04-28 01:48 | 33.21151 | 115.28307 | 34168 ft | 442 kts | 305° |
| 2026-04-28 01:48 | 33.25155 | 115.22775 | 34171 ft | 441 kts | 304° |
| 2026-04-28 01:49 | 33.29206 | 115.17168 | 34169 ft | 442 kts | 304° |
| 2026-04-28 01:49 | 33.33202 | 115.11631 | 34166 ft | 442 kts | 304° |
| 2026-04-28 01:50 | 33.37228 | 115.06043 | 34162 ft | 441 kts | 304° |
| 2026-04-28 01:50 | 33.41204 | 115.00515 | 34165 ft | 443 kts | 304° |
| 2026-04-28 01:51 | 33.45235 | 114.94904 | 34164 ft | 441 kts | 305° |
| 2026-04-28 01:51 | 33.49213 | 114.89357 | 34165 ft | 442 kts | 304° |
| 2026-04-28 01:52 | 33.53228 | 114.83749 | 34166 ft | 442 kts | 304° |
| 2026-04-28 01:52 | 33.57196 | 114.78199 | 34166 ft | 441 kts | 304° |
| 2026-04-28 01:53 | 33.61209 | 114.72636 | 34166 ft | 440 kts | 305° |
| 2026-04-28 01:53 | 33.65266 | 114.67155 | 34159 ft | 440 kts | 306° |
| 2026-04-28 01:54 | 33.69904 | 114.62220 | 34168 ft | 448 kts | 315° |
| 2026-04-28 01:54 | 33.74778 | 114.57567 | 34164 ft | 448 kts | 314° |
| 2026-04-28 01:55 | 33.79659 | 114.52896 | 34164 ft | 449 kts | 315° |
| 2026-04-28 01:55 | 33.84530 | 114.48254 | 34163 ft | 446 kts | 315° |
| 2026-04-28 01:56 | 33.89406 | 114.43675 | 34165 ft | 448 kts | 315° |
| 2026-04-28 01:56 | 33.94300 | 114.39069 | 34168 ft | 446 kts | 315° |
| 2026-04-28 01:57 | 33.99173 | 114.34476 | 34173 ft | 443 kts | 314° |
| 2026-04-28 01:57 | 34.04020 | 114.29895 | 34188 ft | 442 kts | 314° |
| 2026-04-28 01:58 | 34.08911 | 114.25263 | 34183 ft | 446 kts | 314° |
| 2026-04-28 01:58 | 34.13733 | 114.20695 | 34188 ft | 443 kts | 314° |
| 2026-04-28 01:59 | 34.18612 | 114.16062 | 34190 ft | 444 kts | 314° |
| 2026-04-28 01:59 | 34.23459 | 114.11454 | 34183 ft | 442 kts | 314° |
| 2026-04-28 02:00 | 34.28294 | 114.06849 | 34189 ft | 443 kts | 314° |
| 2026-04-28 02:00 | 34.33135 | 114.02232 | 34195 ft | 443 kts | 314° |
| 2026-04-28 02:01 | 34.37959 | 113.97626 | 34193 ft | 441 kts | 314° |
| 2026-04-28 02:01 | 34.42760 | 113.93031 | 34199 ft | 443 kts | 314° |
| 2026-04-28 02:02 | 34.47555 | 113.88439 | 34186 ft | 438 kts | 314° |
| 2026-04-28 02:02 | 34.52791 | 113.84363 | 34192 ft | 457 kts | 327° |
| 2026-04-28 02:03 | 34.58881 | 113.81928 | 34199 ft | 466 kts | 336° |
| 2026-04-28 02:03 | 34.65203 | 113.79874 | 34192 ft | 472 kts | 336° |
| 2026-04-28 02:04 | 34.71523 | 113.77811 | 34191 ft | 469 kts | 336° |
| 2026-04-28 02:04 | 34.77817 | 113.75738 | 34193 ft | 469 kts | 335° |
| 2026-04-28 02:05 | 34.84115 | 113.73656 | 34199 ft | 470 kts | 335° |
| 2026-04-28 02:05 | 34.90380 | 113.71300 | 34202 ft | 466 kts | 330° |
| 2026-04-28 02:06 | 34.96453 | 113.68559 | 34193 ft | 463 kts | 330° |
| 2026-04-28 02:06 | 35.02502 | 113.65848 | 34198 ft | 465 kts | 330° |
| 2026-04-28 02:07 | 35.08569 | 113.63150 | 34191 ft | 462 kts | 330° |
| 2026-04-28 02:07 | 35.14634 | 113.60455 | 34188 ft | 466 kts | 330° |
| 2026-04-28 02:08 | 35.20741 | 113.57746 | 34185 ft | 461 kts | 330° |
| 2026-04-28 02:08 | 35.26859 | 113.55026 | 34193 ft | 467 kts | 330° |
| 2026-04-28 02:09 | 35.32908 | 113.52342 | 34195 ft | 461 kts | 330° |
| 2026-04-28 02:09 | 35.38965 | 113.49642 | 34217 ft | 466 kts | 330° |
| 2026-04-28 02:10 | 35.45013 | 113.46949 | 34221 ft | 461 kts | 330° |
| 2026-04-28 02:10 | 35.50554 | 113.43420 | 34232 ft | 440 kts | 315° |
| 2026-04-28 02:11 | 35.54945 | 113.38375 | 34232 ft | 425 kts | 301° |
| 2026-04-28 02:11 | 35.57995 | 113.32307 | 34255 ft | 413 kts | 288° |
| 2026-04-28 02:12 | 35.59641 | 113.25660 | 34246 ft | 401 kts | 276° |
| 2026-04-28 02:12 | 35.59877 | 113.18816 | 34244 ft | 400 kts | 264° |
| 2026-04-28 02:13 | 35.58733 | 113.12159 | 34239 ft | 400 kts | 252° |
| 2026-04-28 02:13 | 35.56272 | 113.06025 | 34232 ft | 405 kts | 240° |
| 2026-04-28 02:14 | 35.52421 | 113.00864 | 34228 ft | 423 kts | 224° |
| 2026-04-28 02:14 | 35.47119 | 112.97478 | 34225 ft | 433 kts | 211° |
| 2026-04-28 02:15 | 35.41989 | 112.93778 | 34227 ft | 428 kts | 225° |
| 2026-04-28 02:15 | 35.39772 | 112.91367 | 34224 ft | 422 kts | 230° |
| 2026-04-28 02:16 | 35.35896 | 112.86137 | 34223 ft | 411 kts | 236° |
| 2026-04-28 02:16 | 35.32446 | 112.80539 | 34224 ft | 411 kts | 239° |
| 2026-04-28 02:17 | 35.29246 | 112.74775 | 34223 ft | 411 kts | 240° |
| 2026-04-28 02:17 | 35.26158 | 112.68919 | 34225 ft | 410 kts | 242° |
| 2026-04-28 02:18 | 35.23100 | 112.62976 | 34225 ft | 412 kts | 242° |
| 2026-04-28 02:18 | 35.20082 | 112.57046 | 34220 ft | 411 kts | 242° |
| 2026-04-28 02:19 | 35.17107 | 112.51072 | 34211 ft | 412 kts | 242° |
| 2026-04-28 02:19 | 35.14126 | 112.45073 | 34206 ft | 413 kts | 243° |
| 2026-04-28 02:20 | 35.11136 | 112.39062 | 34202 ft | 412 kts | 243° |
| 2026-04-28 02:20 | 35.08182 | 112.33128 | 34222 ft | 413 kts | 242° |
| 2026-04-28 02:21 | 35.05198 | 112.27145 | 34217 ft | 413 kts | 242° |
| 2026-04-28 02:21 | 35.02190 | 112.21124 | 34213 ft | 414 kts | 242° |
| 2026-04-28 02:22 | 34.99224 | 112.15195 | 34215 ft | 414 kts | 242° |
| 2026-04-28 02:22 | 34.96202 | 112.09166 | 34215 ft | 415 kts | 242° |
| 2026-04-28 02:23 | 34.93198 | 112.03181 | 34216 ft | 416 kts | 242° |
| 2026-04-28 02:23 | 34.90176 | 111.97174 | 34215 ft | 414 kts | 242° |
| 2026-04-28 02:24 | 34.87163 | 111.91190 | 34216 ft | 415 kts | 242° |
| 2026-04-28 02:24 | 34.84172 | 111.85176 | 34207 ft | 416 kts | 242° |
| 2026-04-28 02:25 | 34.81178 | 111.79155 | 34208 ft | 415 kts | 242° |
| 2026-04-28 02:25 | 34.78159 | 111.73096 | 34205 ft | 418 kts | 242° |
| 2026-04-28 02:26 | 34.75162 | 111.67096 | 34205 ft | 415 kts | 242° |
| 2026-04-28 02:26 | 34.72160 | 111.61093 | 34198 ft | 417 kts | 242° |
| 2026-04-28 02:27 | 34.69138 | 111.55062 | 34199 ft | 417 kts | 242° |
| 2026-04-28 02:27 | 34.66127 | 111.49065 | 34201 ft | 418 kts | 242° |
| 2026-04-28 02:28 | 34.63113 | 111.43072 | 34200 ft | 415 kts | 242° |
| 2026-04-28 02:28 | 34.60080 | 111.37051 | 34200 ft | 420 kts | 242° |
| 2026-04-28 02:29 | 34.57029 | 111.31003 | 34221 ft | 418 kts | 241° |
| 2026-04-28 02:29 | 34.53988 | 111.24987 | 34235 ft | 420 kts | 242° |
| 2026-04-28 02:30 | 34.50935 | 111.18958 | 34225 ft | 418 kts | 242° |
| 2026-04-28 02:30 | 34.47883 | 111.12940 | 34222 ft | 420 kts | 241° |
| 2026-04-28 02:31 | 34.44834 | 111.06938 | 34221 ft | 419 kts | 241° |
| 2026-04-28 02:31 | 34.41790 | 111.00929 | 34222 ft | 420 kts | 241° |
| 2026-04-28 02:32 | 34.38760 | 110.94855 | 34221 ft | 420 kts | 242° |
| 2026-04-28 02:32 | 34.35742 | 110.88818 | 34220 ft | 422 kts | 242° |
| 2026-04-28 02:33 | 34.32719 | 110.82784 | 34215 ft | 421 kts | 242° |
| 2026-04-28 02:33 | 34.29671 | 110.76714 | 34218 ft | 423 kts | 241° |
| 2026-04-28 02:34 | 34.26627 | 110.70659 | 34228 ft | 423 kts | 241° |
| 2026-04-28 02:34 | 34.23563 | 110.64578 | 34222 ft | 421 kts | 241° |
| 2026-04-28 02:35 | 34.20508 | 110.58524 | 34235 ft | 424 kts | 241° |
| 2026-04-28 02:35 | 34.17444 | 110.52464 | 34231 ft | 424 kts | 241° |
| 2026-04-28 02:36 | 34.14376 | 110.46405 | 34235 ft | 425 kts | 241° |
| 2026-04-28 02:36 | 34.11309 | 110.40311 | 34222 ft | 423 kts | 241° |
| 2026-04-28 02:37 | 34.08271 | 110.34257 | 34238 ft | 426 kts | 240° |
| 2026-04-28 02:37 | 34.05191 | 110.28133 | 34254 ft | 426 kts | 241° |
| 2026-04-28 02:38 | 34.02133 | 110.22065 | 34253 ft | 426 kts | 241° |
| 2026-04-28 02:38 | 33.99046 | 110.15950 | 34252 ft | 427 kts | 240° |
| 2026-04-28 02:39 | 33.95970 | 110.09867 | 34252 ft | 427 kts | 240° |
| 2026-04-28 02:39 | 33.92876 | 110.03703 | 34242 ft | 426 kts | 243° |
| 2026-04-28 02:40 | 33.90750 | 109.97096 | 34252 ft | 427 kts | 256° |
| 2026-04-28 02:40 | 33.90131 | 109.90035 | 34248 ft | 428 kts | 269° |
| 2026-04-28 02:41 | 33.91090 | 109.82922 | 34243 ft | 437 kts | 283° |
| 2026-04-28 02:41 | 33.93248 | 109.76067 | 34249 ft | 436 kts | 287° |
| 2026-04-28 02:42 | 33.95464 | 109.69288 | 34256 ft | 439 kts | 287° |
| 2026-04-28 02:42 | 33.97683 | 109.62439 | 34255 ft | 437 kts | 287° |
| 2026-04-28 02:43 | 33.99888 | 109.55595 | 34264 ft | 438 kts | 287° |
| 2026-04-28 02:43 | 34.02080 | 109.48762 | 34270 ft | 441 kts | 286° |
| 2026-04-28 02:44 | 34.04287 | 109.41865 | 34267 ft | 440 kts | 287° |
| 2026-04-28 02:44 | 34.06482 | 109.34982 | 34263 ft | 440 kts | 286° |
| 2026-04-28 02:45 | 34.08669 | 109.28112 | 34276 ft | 439 kts | 286° |
| 2026-04-28 02:45 | 34.10852 | 109.21234 | 34272 ft | 439 kts | 286° |
| 2026-04-28 02:46 | 34.13033 | 109.14346 | 34271 ft | 441 kts | 286° |
| 2026-04-28 02:46 | 34.15218 | 109.07432 | 34264 ft | 440 kts | 286° |
| 2026-04-28 02:47 | 34.17392 | 109.00535 | 34266 ft | 441 kts | 286° |
| 2026-04-28 02:47 | 34.20016 | 108.93817 | 34240 ft | 449 kts | 297° |
| 2026-04-28 02:47 | 34.21903 | 108.90746 | 34243 ft | 460 kts | 305° |
| 2026-04-28 02:48 | 34.24147 | 108.88001 | 34233 ft | 463 kts | 312° |
| 2026-04-28 02:48 | 34.29621 | 108.83710 | 34230 ft | 481 kts | 328° |
| 2026-04-28 02:49 | 34.36144 | 108.81345 | 34212 ft | 495 kts | 341° |
| 2026-04-28 02:49 | 34.42899 | 108.79681 | 34203 ft | 493 kts | 341° |
| 2026-04-28 02:50 | 34.49649 | 108.77933 | 34198 ft | 495 kts | 340° |
| 2026-04-28 02:50 | 34.56355 | 108.76128 | 34211 ft | 494 kts | 340° |
| 2026-04-28 02:51 | 34.63054 | 108.74303 | 34232 ft | 495 kts | 340° |
| 2026-04-28 02:51 | 34.69738 | 108.72443 | 34233 ft | 491 kts | 336° |
| 2026-04-28 02:52 | 34.75861 | 108.69136 | 34247 ft | 473 kts | 320° |
| 2026-04-28 02:52 | 34.78462 | 108.66779 | 34245 ft | 461 kts | 311° |
| 2026-04-28 02:52 | 34.80754 | 108.64023 | 34248 ft | 457 kts | 306° |
| 2026-04-28 02:53 | 34.85016 | 108.58304 | 34248 ft | 456 kts | 306° |
| 2026-04-28 02:53 | 34.89252 | 108.52586 | 34253 ft | 458 kts | 305° |
| 2026-04-28 02:54 | 34.93528 | 108.46802 | 34265 ft | 456 kts | 306° |
| 2026-04-28 02:54 | 34.97783 | 108.41036 | 34273 ft | 458 kts | 305° |
| 2026-04-28 02:55 | 35.02060 | 108.35229 | 34260 ft | 458 kts | 305° |
| 2026-04-28 02:55 | 35.06300 | 108.29466 | 34273 ft | 454 kts | 304° |
| 2026-04-28 02:56 | 35.10561 | 108.23658 | 34266 ft | 460 kts | 304° |
| 2026-04-28 02:56 | 35.14790 | 108.17891 | 34259 ft | 454 kts | 304° |
| 2026-04-28 02:57 | 35.19031 | 108.12092 | 34264 ft | 458 kts | 305° |
| 2026-04-28 02:57 | 35.23280 | 108.06275 | 34259 ft | 457 kts | 304° |
| 2026-04-28 02:58 | 35.27493 | 108.00500 | 34258 ft | 454 kts | 304° |
| 2026-04-28 02:58 | 35.31682 | 107.94742 | 34266 ft | 456 kts | 304° |
| 2026-04-28 02:59 | 35.35887 | 107.88957 | 34273 ft | 454 kts | 304° |
| 2026-04-28 02:59 | 35.40118 | 107.83154 | 34267 ft | 454 kts | 304° |
| 2026-04-28 03:00 | 35.44294 | 107.77422 | 34280 ft | 452 kts | 304° |
| 2026-04-28 03:00 | 35.48956 | 107.72034 | 34279 ft | 466 kts | 317° |
| 2026-04-28 03:01 | 35.54810 | 107.68344 | 34283 ft | 484 kts | 333° |
| 2026-04-28 03:01 | 35.61447 | 107.66419 | 34286 ft | 495 kts | 340° |
| 2026-04-28 03:02 | 35.68113 | 107.64396 | 34291 ft | 484 kts | 331° |
| 2026-04-28 03:02 | 35.71113 | 107.62694 | 34294 ft | 470 kts | 322° |
| 2026-04-28 03:02 | 35.73857 | 107.60490 | 34293 ft | 458 kts | 314° |
| 2026-04-28 03:03 | 35.78256 | 107.54999 | 34285 ft | 444 kts | 299° |
| 2026-04-28 03:03 | 35.81160 | 107.48480 | 34284 ft | 429 kts | 285° |
| 2026-04-28 03:04 | 35.82915 | 107.41502 | 34294 ft | 425 kts | 282° |
| 2026-04-28 03:04 | 35.84555 | 107.34491 | 34296 ft | 426 kts | 281° |
| 2026-04-28 03:05 | 35.86167 | 107.27450 | 34324 ft | 426 kts | 281° |
| 2026-04-28 03:05 | 35.87755 | 107.20422 | 34308 ft | 422 kts | 280° |
| 2026-04-28 03:06 | 35.89322 | 107.13426 | 34325 ft | 421 kts | 279° |
| 2026-04-28 03:06 | 35.90830 | 107.06436 | 34323 ft | 424 kts | 279° |
| 2026-04-28 03:07 | 35.92276 | 106.99382 | 34326 ft | 419 kts | 279° |
| 2026-04-28 03:07 | 35.93698 | 106.92429 | 34318 ft | 421 kts | 279° |
| 2026-04-28 03:08 | 35.95132 | 106.85414 | 34331 ft | 419 kts | 279° |
| 2026-04-28 03:08 | 35.96559 | 106.78413 | 34349 ft | 421 kts | 279° |
| 2026-04-28 03:09 | 35.97982 | 106.71411 | 34341 ft | 422 kts | 279° |
| 2026-04-28 03:09 | 35.99396 | 106.64442 | 34341 ft | 419 kts | 279° |
| 2026-04-28 03:10 | 36.00814 | 106.57417 | 34347 ft | 424 kts | 279° |
| 2026-04-28 03:10 | 36.02221 | 106.50434 | 34346 ft | 419 kts | 279° |
| 2026-04-28 03:11 | 36.03621 | 106.43457 | 34364 ft | 423 kts | 279° |
| 2026-04-28 03:11 | 36.05029 | 106.36426 | 34367 ft | 420 kts | 279° |
| 2026-04-28 03:12 | 36.06422 | 106.29438 | 34388 ft | 422 kts | 279° |
| 2026-04-28 03:12 | 36.07820 | 106.22408 | 34383 ft | 419 kts | 279° |
| 2026-04-28 03:13 | 36.09327 | 106.15416 | 34389 ft | 422 kts | 280° |
| 2026-04-28 03:13 | 36.10895 | 106.08422 | 34371 ft | 420 kts | 281° |
| 2026-04-28 03:14 | 36.12451 | 106.01427 | 34388 ft | 424 kts | 280° |
| 2026-04-28 03:14 | 36.13988 | 105.94482 | 34397 ft | 420 kts | 280° |
| 2026-04-28 03:15 | 36.15540 | 105.87437 | 34381 ft | 423 kts | 281° |
| 2026-04-28 03:15 | 36.17071 | 105.80468 | 34382 ft | 422 kts | 281° |
| 2026-04-28 03:16 | 36.18616 | 105.73407 | 34374 ft | 425 kts | 280° |
| 2026-04-28 03:16 | 36.20146 | 105.66394 | 34383 ft | 425 kts | 280° |
| 2026-04-28 03:17 | 36.21677 | 105.59353 | 34366 ft | 423 kts | 281° |
| 2026-04-28 03:17 | 36.23962 | 105.48805 | 34373 ft | 424 kts | 280° |
| 2026-04-28 03:18 | 36.25491 | 105.41717 | 34362 ft | 428 kts | 280° |
| 2026-04-28 03:18 | 36.27017 | 105.34629 | 34375 ft | 424 kts | 279° |
| 2026-04-28 03:19 | 36.28543 | 105.27509 | 34380 ft | 427 kts | 279° |
| 2026-04-28 03:19 | 36.30060 | 105.20414 | 34379 ft | 426 kts | 279° |
| 2026-04-28 03:20 | 36.31585 | 105.13281 | 34370 ft | 426 kts | 280° |
| 2026-04-28 03:20 | 36.33099 | 105.06200 | 34377 ft | 425 kts | 279° |
| 2026-04-28 03:21 | 36.34616 | 104.99075 | 34378 ft | 428 kts | 280° |
| 2026-04-28 03:21 | 36.36124 | 104.91973 | 34368 ft | 427 kts | 279° |
| 2026-04-28 03:22 | 36.37626 | 104.84875 | 34379 ft | 427 kts | 280° |
| 2026-04-28 03:22 | 36.39125 | 104.77768 | 34380 ft | 425 kts | 280° |
| 2026-04-28 03:23 | 36.40629 | 104.70618 | 34384 ft | 427 kts | 279° |
| 2026-04-28 03:23 | 36.42122 | 104.63499 | 34376 ft | 427 kts | 279° |
| 2026-04-28 03:24 | 36.43604 | 104.56406 | 34383 ft | 429 kts | 280° |
| 2026-04-28 03:24 | 36.45094 | 104.49260 | 34381 ft | 427 kts | 279° |
| 2026-04-28 03:25 | 36.46582 | 104.42089 | 34379 ft | 427 kts | 279° |
| 2026-04-28 03:25 | 36.48136 | 104.35008 | 34380 ft | 430 kts | 284° |
| 2026-04-28 03:26 | 36.50734 | 104.28223 | 34400 ft | 440 kts | 291° |
| 2026-04-28 03:26 | 36.53593 | 104.21568 | 34403 ft | 437 kts | 291° |
| 2026-04-28 03:27 | 36.56434 | 104.14920 | 34395 ft | 437 kts | 291° |
| 2026-04-28 03:27 | 36.59294 | 104.08202 | 34392 ft | 441 kts | 291° |
| 2026-04-28 03:28 | 36.62132 | 104.01533 | 34379 ft | 439 kts | 292° |
| 2026-04-28 03:28 | 36.65028 | 103.94893 | 34383 ft | 438 kts | 292° |
| 2026-04-28 03:29 | 36.67945 | 103.88197 | 34391 ft | 436 kts | 292° |
| 2026-04-28 03:29 | 36.70839 | 103.81531 | 34415 ft | 440 kts | 292° |
| 2026-04-28 03:30 | 36.73716 | 103.74893 | 34405 ft | 438 kts | 292° |
| 2026-04-28 03:30 | 36.76612 | 103.68197 | 34415 ft | 437 kts | 292° |
| 2026-04-28 03:31 | 36.79493 | 103.61518 | 34427 ft | 435 kts | 292° |
| 2026-04-28 03:31 | 36.82348 | 103.54882 | 34432 ft | 438 kts | 292° |
| 2026-04-28 03:32 | 36.85215 | 103.48209 | 34434 ft | 437 kts | 292° |
| 2026-04-28 03:32 | 36.88087 | 103.41510 | 34456 ft | 436 kts | 292° |
| 2026-04-28 03:33 | 36.90942 | 103.34837 | 34461 ft | 435 kts | 291° |
| 2026-04-28 03:33 | 36.93810 | 103.28116 | 34475 ft | 436 kts | 291° |
| 2026-04-28 03:34 | 36.96997 | 103.21661 | 34473 ft | 438 kts | 296° |
| 2026-04-28 03:34 | 37.00322 | 103.15155 | 34452 ft | 442 kts | 296° |
| 2026-04-28 03:35 | 37.03596 | 103.08699 | 34451 ft | 436 kts | 295° |
| 2026-04-28 03:35 | 37.06830 | 103.02278 | 34436 ft | 439 kts | 295° |
| 2026-04-28 03:36 | 37.10096 | 102.95772 | 34432 ft | 441 kts | 296° |
| 2026-04-28 03:36 | 37.13331 | 102.89311 | 34420 ft | 437 kts | 295° |
| 2026-04-28 03:37 | 37.16567 | 102.82829 | 34416 ft | 441 kts | 296° |
| 2026-04-28 03:37 | 37.19818 | 102.76308 | 34425 ft | 437 kts | 296° |
| 2026-04-28 03:38 | 37.23013 | 102.69881 | 34421 ft | 440 kts | 296° |
| 2026-04-28 03:38 | 37.26254 | 102.63351 | 34428 ft | 438 kts | 296° |
| 2026-04-28 03:39 | 37.29466 | 102.56865 | 34409 ft | 440 kts | 296° |
| 2026-04-28 03:39 | 37.32722 | 102.50279 | 34412 ft | 438 kts | 297° |
| 2026-04-28 03:40 | 37.35636 | 102.43617 | 34421 ft | 434 kts | 287° |
| 2026-04-28 03:40 | 37.37319 | 102.36367 | 34428 ft | 429 kts | 281° |
| 2026-04-28 03:41 | 37.38745 | 102.29153 | 34441 ft | 429 kts | 281° |
| 2026-04-28 03:41 | 37.40173 | 102.21880 | 34443 ft | 433 kts | 281° |
| 2026-04-28 03:42 | 37.41603 | 102.14567 | 34443 ft | 430 kts | 281° |
| 2026-04-28 03:42 | 37.43026 | 102.07250 | 34451 ft | 432 kts | 281° |
| 2026-04-28 03:43 | 37.44453 | 101.99896 | 34445 ft | 433 kts | 281° |
| 2026-04-28 03:43 | 37.45872 | 101.92548 | 34459 ft | 433 kts | 281° |
| 2026-04-28 03:44 | 37.47293 | 101.85166 | 34464 ft | 433 kts | 281° |
| 2026-04-28 03:44 | 37.48711 | 101.77776 | 34469 ft | 433 kts | 282° |
| 2026-04-28 03:45 | 37.50161 | 101.70416 | 34461 ft | 436 kts | 285° |
| 2026-04-28 03:45 | 37.52633 | 101.63445 | 34467 ft | 440 kts | 295° |
| 2026-04-28 03:46 | 37.55543 | 101.56657 | 34462 ft | 440 kts | 295° |
| 2026-04-28 03:46 | 37.58448 | 101.49861 | 34470 ft | 440 kts | 295° |
| 2026-04-28 03:47 | 37.61360 | 101.43021 | 34470 ft | 442 kts | 295° |
| 2026-04-28 03:47 | 37.64259 | 101.36195 | 34487 ft | 441 kts | 295° |
| 2026-04-28 03:48 | 37.67133 | 101.29414 | 34512 ft | 439 kts | 295° |
| 2026-04-28 03:48 | 37.69999 | 101.22633 | 34516 ft | 442 kts | 295° |
| 2026-04-28 03:49 | 37.72897 | 101.15762 | 34521 ft | 442 kts | 295° |
| 2026-04-28 03:49 | 37.75751 | 101.08981 | 34520 ft | 439 kts | 295° |
| 2026-04-28 03:50 | 37.78638 | 101.02105 | 34523 ft | 441 kts | 295° |
| 2026-04-28 03:50 | 37.81509 | 100.95252 | 34517 ft | 441 kts | 295° |
| 2026-04-28 03:51 | 37.84423 | 100.88430 | 34521 ft | 441 kts | 297° |
| 2026-04-28 03:51 | 37.87474 | 100.81641 | 34523 ft | 443 kts | 297° |
| 2026-04-28 03:52 | 37.90486 | 100.74912 | 34525 ft | 441 kts | 297° |
| 2026-04-28 03:52 | 37.93498 | 100.68155 | 34547 ft | 440 kts | 297° |
| 2026-04-28 03:53 | 37.96505 | 100.61386 | 34556 ft | 442 kts | 297° |
| 2026-04-28 03:53 | 37.99507 | 100.54613 | 34555 ft | 443 kts | 297° |
| 2026-04-28 03:54 | 38.02507 | 100.47829 | 34548 ft | 442 kts | 297° |
| 2026-04-28 03:54 | 38.05521 | 100.40997 | 34534 ft | 441 kts | 297° |
| 2026-04-28 03:55 | 38.08511 | 100.34204 | 34522 ft | 445 kts | 296° |
| 2026-04-28 03:55 | 38.11521 | 100.27351 | 34530 ft | 442 kts | 297° |
| 2026-04-28 03:56 | 38.14493 | 100.20572 | 34533 ft | 444 kts | 297° |
| 2026-04-28 03:56 | 38.17487 | 100.13727 | 34546 ft | 442 kts | 297° |
| 2026-04-28 03:57 | 38.20478 | 100.06873 | 34532 ft | 443 kts | 297° |
| 2026-04-28 03:57 | 38.23457 | 100.00033 | 34545 ft | 444 kts | 297° |
| 2026-04-28 03:58 | 38.26440 | 99.93170 | 34544 ft | 443 kts | 297° |
| 2026-04-28 03:58 | 38.29393 | 99.86360 | 34527 ft | 440 kts | 297° |
| 2026-04-28 03:59 | 38.32351 | 99.79521 | 34520 ft | 442 kts | 297° |
| 2026-04-28 03:59 | 38.35319 | 99.72649 | 34514 ft | 441 kts | 297° |
| 2026-04-28 04:00 | 38.38263 | 99.65816 | 34511 ft | 440 kts | 298° |
| 2026-04-28 04:00 | 38.41198 | 99.58989 | 34527 ft | 440 kts | 298° |
| 2026-04-28 04:01 | 38.44132 | 99.52150 | 34543 ft | 438 kts | 298° |
| 2026-04-28 04:01 | 38.47051 | 99.45328 | 34538 ft | 440 kts | 298° |
| 2026-04-28 04:02 | 38.49966 | 99.38504 | 34535 ft | 438 kts | 298° |
| 2026-04-28 04:02 | 38.52883 | 99.31660 | 34512 ft | 438 kts | 297° |
| 2026-04-28 04:03 | 38.55802 | 99.24795 | 34491 ft | 436 kts | 298° |
| 2026-04-28 04:03 | 38.58693 | 99.17982 | 34500 ft | 437 kts | 298° |
| 2026-04-28 04:04 | 38.61576 | 99.11174 | 34529 ft | 435 kts | 298° |
| 2026-04-28 04:04 | 38.64450 | 99.04372 | 34565 ft | 437 kts | 298° |
| 2026-04-28 04:05 | 38.67320 | 98.97563 | 34575 ft | 434 kts | 298° |
| 2026-04-28 04:05 | 38.70181 | 98.90762 | 34545 ft | 435 kts | 298° |
| 2026-04-28 04:06 | 38.73063 | 98.83895 | 34522 ft | 435 kts | 298° |
| 2026-04-28 04:06 | 38.75932 | 98.77046 | 34509 ft | 435 kts | 298° |
| 2026-04-28 04:07 | 38.78791 | 98.70205 | 34496 ft | 434 kts | 299° |
| 2026-04-28 04:07 | 38.81620 | 98.63420 | 34519 ft | 432 kts | 299° |
| 2026-04-28 04:08 | 38.84454 | 98.56610 | 34556 ft | 433 kts | 299° |
| 2026-04-28 04:08 | 38.87295 | 98.49766 | 34565 ft | 433 kts | 299° |
| 2026-04-28 04:09 | 38.90110 | 98.42970 | 34522 ft | 431 kts | 299° |
| 2026-04-28 04:09 | 38.92921 | 98.36170 | 34509 ft | 433 kts | 299° |
| 2026-04-28 04:10 | 38.95754 | 98.29301 | 34501 ft | 433 kts | 298° |
| 2026-04-28 04:10 | 38.98554 | 98.22496 | 34458 ft | 431 kts | 298° |
| 2026-04-28 04:11 | 39.01366 | 98.15648 | 34485 ft | 434 kts | 299° |
| 2026-04-28 04:11 | 39.04169 | 98.08806 | 34536 ft | 433 kts | 299° |
| 2026-04-28 04:12 | 39.06976 | 98.01941 | 34560 ft | 433 kts | 299° |
| 2026-04-28 04:12 | 39.09753 | 97.95132 | 34560 ft | 435 kts | 299° |
| 2026-04-28 04:13 | 39.12569 | 97.88213 | 34527 ft | 434 kts | 299° |
| 2026-04-28 04:13 | 39.15370 | 97.81314 | 34503 ft | 432 kts | 299° |
| 2026-04-28 04:14 | 39.18155 | 97.74440 | 34445 ft | 434 kts | 299° |
| 2026-04-28 04:14 | 39.20939 | 97.67554 | 34442 ft | 434 kts | 299° |
| 2026-04-28 04:15 | 39.23723 | 97.60656 | 34441 ft | 435 kts | 299° |
| 2026-04-28 04:16 | 39.27938 | 97.50219 | 34444 ft | 436 kts | 299° |
| 2026-04-28 04:16 | 39.30714 | 97.43327 | 34464 ft | 437 kts | 299° |
| 2026-04-28 04:17 | 39.33513 | 97.36359 | 34477 ft | 435 kts | 299° |
| 2026-04-28 04:17 | 39.36312 | 97.29376 | 34492 ft | 438 kts | 298° |
| 2026-04-28 04:18 | 39.39098 | 97.22411 | 34505 ft | 438 kts | 298° |
| 2026-04-28 04:18 | 39.41900 | 97.15386 | 34509 ft | 437 kts | 298° |
| 2026-04-28 04:19 | 39.44694 | 97.08368 | 34504 ft | 438 kts | 298° |
| 2026-04-28 04:19 | 39.47486 | 97.01349 | 34510 ft | 438 kts | 299° |
| 2026-04-28 04:20 | 39.50317 | 96.94295 | 34509 ft | 439 kts | 299° |
| 2026-04-28 04:20 | 39.53120 | 96.87297 | 34500 ft | 438 kts | 299° |
| 2026-04-28 04:21 | 39.55929 | 96.80265 | 34468 ft | 440 kts | 299° |
| 2026-04-28 04:21 | 39.58723 | 96.73253 | 34445 ft | 438 kts | 299° |
| 2026-04-28 04:22 | 39.61516 | 96.66228 | 34448 ft | 440 kts | 299° |
| 2026-04-28 04:22 | 39.64316 | 96.59160 | 34464 ft | 440 kts | 298° |
| 2026-04-28 04:23 | 39.67094 | 96.52105 | 34428 ft | 440 kts | 299° |
| 2026-04-28 04:23 | 39.69869 | 96.45042 | 34449 ft | 439 kts | 299° |
| 2026-04-28 04:24 | 39.72648 | 96.37954 | 34429 ft | 441 kts | 299° |
| 2026-04-28 04:24 | 39.75417 | 96.30875 | 34405 ft | 441 kts | 298° |
| 2026-04-28 04:25 | 39.78185 | 96.23782 | 34409 ft | 441 kts | 298° |
| 2026-04-28 04:25 | 39.80950 | 96.16681 | 34403 ft | 441 kts | 298° |
| 2026-04-28 04:26 | 39.83734 | 96.09510 | 34408 ft | 441 kts | 298° |
| 2026-04-28 04:26 | 39.86496 | 96.02383 | 34387 ft | 442 kts | 298° |
| 2026-04-28 04:27 | 39.89254 | 95.95249 | 34382 ft | 440 kts | 298° |
| 2026-04-28 04:27 | 39.92010 | 95.88103 | 34323 ft | 443 kts | 298° |
| 2026-04-28 04:28 | 39.94759 | 95.80958 | 34336 ft | 444 kts | 298° |
| 2026-04-28 04:28 | 39.97533 | 95.73727 | 34312 ft | 443 kts | 298° |
| 2026-04-28 04:29 | 40.00279 | 95.66556 | 34326 ft | 445 kts | 298° |
| 2026-04-28 04:29 | 40.03050 | 95.59302 | 34307 ft | 445 kts | 298° |
| 2026-04-28 04:30 | 40.05826 | 95.52013 | 34306 ft | 446 kts | 298° |
| 2026-04-28 04:30 | 40.08577 | 95.44775 | 34300 ft | 445 kts | 298° |
| 2026-04-28 04:31 | 40.11334 | 95.37505 | 34309 ft | 448 kts | 298° |
| 2026-04-28 04:31 | 40.14085 | 95.30228 | 34309 ft | 448 kts | 298° |
| 2026-04-28 04:32 | 40.16852 | 95.22895 | 34297 ft | 448 kts | 298° |
| 2026-04-28 04:32 | 40.19597 | 95.15600 | 34304 ft | 447 kts | 298° |
| 2026-04-28 04:33 | 40.22354 | 95.08337 | 34291 ft | 450 kts | 298° |
| 2026-04-28 04:33 | 40.25444 | 95.01292 | 34281 ft | 447 kts | 308° |
| 2026-04-28 04:34 | 40.29827 | 94.95522 | 34277 ft | 446 kts | 323° |
| 2026-04-28 04:34 | 40.35225 | 94.91574 | 34284 ft | 447 kts | 338° |
| 2026-04-28 04:35 | 40.41269 | 94.89715 | 34285 ft | 451 kts | 353° |
| 2026-04-28 04:35 | 40.47562 | 94.90105 | 34281 ft | 458 kts | 6° |
| 2026-04-28 04:36 | 40.53867 | 94.91476 | 34293 ft | 457 kts | 6° |
| 2026-04-28 04:36 | 40.60132 | 94.92829 | 34298 ft | 456 kts | 6° |
| 2026-04-28 04:37 | 40.66421 | 94.94173 | 34305 ft | 456 kts | 6° |
| 2026-04-28 04:37 | 40.72704 | 94.95509 | 34317 ft | 456 kts | 6° |
| 2026-04-28 04:38 | 40.78952 | 94.96837 | 34303 ft | 457 kts | 6° |
| 2026-04-28 04:38 | 40.85267 | 94.98180 | 34324 ft | 454 kts | 6° |
| 2026-04-28 04:39 | 40.91540 | 94.99514 | 34323 ft | 455 kts | 6° |
| 2026-04-28 04:39 | 40.97793 | 95.00846 | 34314 ft | 455 kts | 6° |
| 2026-04-28 04:40 | 41.04035 | 95.02178 | 34307 ft | 454 kts | 6° |
| 2026-04-28 04:40 | 41.10310 | 95.03519 | 34324 ft | 454 kts | 6° |
| 2026-04-28 04:41 | 41.16530 | 95.04852 | 34329 ft | 453 kts | 6° |
| 2026-04-28 04:41 | 41.22752 | 95.06187 | 34334 ft | 454 kts | 6° |
| 2026-04-28 04:42 | 41.29005 | 95.07532 | 34338 ft | 453 kts | 6° |
| 2026-04-28 04:42 | 41.35233 | 95.08874 | 34335 ft | 453 kts | 6° |
| 2026-04-28 04:43 | 41.41476 | 95.10221 | 34329 ft | 453 kts | 6° |
| 2026-04-28 04:43 | 41.47689 | 95.11565 | 34334 ft | 453 kts | 6° |
| 2026-04-28 04:44 | 41.53942 | 95.12920 | 34338 ft | 453 kts | 6° |
| 2026-04-28 04:44 | 41.60150 | 95.14267 | 34339 ft | 453 kts | 7° |
| 2026-04-28 04:45 | 41.66376 | 95.15622 | 34354 ft | 452 kts | 7° |
| 2026-04-28 04:45 | 41.72596 | 95.16977 | 34348 ft | 452 kts | 7° |
| 2026-04-28 04:46 | 41.78849 | 95.17649 | 34348 ft | 450 kts | 355° |
| 2026-04-28 04:46 | 41.84942 | 95.16054 | 34346 ft | 449 kts | 340° |
| 2026-04-28 04:47 | 41.90479 | 95.12244 | 34348 ft | 449 kts | 325° |
| 2026-04-28 04:47 | 41.95049 | 95.06535 | 34343 ft | 453 kts | 313° |
| 2026-04-28 04:48 | 41.99175 | 95.00178 | 34325 ft | 453 kts | 313° |
| 2026-04-28 04:48 | 42.03318 | 94.93797 | 34319 ft | 454 kts | 313° |
| 2026-04-28 04:49 | 42.07467 | 94.87410 | 34325 ft | 454 kts | 313° |
| 2026-04-28 04:49 | 42.11620 | 94.81011 | 34304 ft | 454 kts | 313° |
| 2026-04-28 04:50 | 42.15799 | 94.74564 | 34333 ft | 456 kts | 313° |
| 2026-04-28 04:50 | 42.19930 | 94.68178 | 34306 ft | 453 kts | 313° |
| 2026-04-28 04:51 | 42.24118 | 94.61693 | 34316 ft | 456 kts | 313° |
| 2026-04-28 04:51 | 42.28276 | 94.55240 | 34289 ft | 455 kts | 313° |
| 2026-04-28 04:52 | 42.32399 | 94.48827 | 34297 ft | 455 kts | 313° |
| 2026-04-28 04:52 | 42.36913 | 94.41789 | 34296 ft | 455 kts | 313° |
| 2026-04-28 04:53 | 42.41059 | 94.35312 | 34300 ft | 455 kts | 313° |
| 2026-04-28 04:53 | 42.45223 | 94.28792 | 34301 ft | 457 kts | 312° |
| 2026-04-28 04:54 | 42.49354 | 94.22309 | 34302 ft | 457 kts | 312° |
| 2026-04-28 04:54 | 42.53481 | 94.15818 | 34294 ft | 456 kts | 312° |
| 2026-04-28 04:55 | 42.57637 | 94.09267 | 34288 ft | 457 kts | 312° |
| 2026-04-28 04:55 | 42.61766 | 94.02743 | 34310 ft | 456 kts | 312° |
| 2026-04-28 04:56 | 42.65897 | 93.96203 | 34311 ft | 456 kts | 312° |
| 2026-04-28 04:56 | 42.70043 | 93.89623 | 34319 ft | 456 kts | 312° |
| 2026-04-28 04:57 | 42.74149 | 93.83095 | 34315 ft | 457 kts | 312° |
| 2026-04-28 04:57 | 42.78286 | 93.76499 | 34320 ft | 457 kts | 312° |
| 2026-04-28 04:58 | 42.82356 | 93.69893 | 34316 ft | 457 kts | 308° |
| 2026-04-28 04:58 | 42.85392 | 93.62231 | 34309 ft | 463 kts | 293° |
| 2026-04-28 04:59 | 42.87527 | 93.53947 | 34294 ft | 464 kts | 291° |
| 2026-04-28 04:59 | 42.89618 | 93.45643 | 34305 ft | 465 kts | 291° |
| 2026-04-28 05:00 | 42.91704 | 93.37294 | 34279 ft | 464 kts | 291° |
| 2026-04-28 05:00 | 42.93761 | 93.29015 | 34293 ft | 465 kts | 290° |
| 2026-04-28 05:01 | 42.95830 | 93.20645 | 34277 ft | 465 kts | 290° |
| 2026-04-28 05:01 | 42.97892 | 93.12270 | 34264 ft | 465 kts | 290° |
| 2026-04-28 05:02 | 42.99943 | 93.03907 | 34257 ft | 465 kts | 290° |
| 2026-04-28 05:02 | 43.01985 | 92.95548 | 34257 ft | 465 kts | 290° |
| 2026-04-28 05:03 | 43.04018 | 92.87196 | 34256 ft | 465 kts | 290° |
| 2026-04-28 05:03 | 43.06059 | 92.78781 | 34264 ft | 465 kts | 290° |
| 2026-04-28 05:04 | 43.08076 | 92.70433 | 34266 ft | 464 kts | 290° |
| 2026-04-28 05:04 | 43.10102 | 92.62014 | 34252 ft | 463 kts | 290° |
| 2026-04-28 05:05 | 43.12104 | 92.53669 | 34262 ft | 463 kts | 290° |
| 2026-04-28 05:05 | 43.14105 | 92.45291 | 34261 ft | 463 kts | 290° |
| 2026-04-28 05:06 | 43.16102 | 92.36903 | 34260 ft | 462 kts | 290° |
| 2026-04-28 05:06 | 43.18092 | 92.28514 | 34268 ft | 463 kts | 289° |
| 2026-04-28 05:07 | 43.20079 | 92.20102 | 34260 ft | 462 kts | 289° |
| 2026-04-28 05:07 | 43.22040 | 92.11774 | 34261 ft | 463 kts | 289° |
| 2026-04-28 05:08 | 43.24016 | 92.03346 | 34254 ft | 462 kts | 289° |
| 2026-04-28 05:08 | 43.25973 | 91.94968 | 34253 ft | 462 kts | 289° |
| 2026-04-28 05:09 | 43.27914 | 91.86631 | 34250 ft | 463 kts | 289° |
| 2026-04-28 05:09 | 43.29863 | 91.78224 | 34244 ft | 462 kts | 289° |
| 2026-04-28 05:10 | 43.31812 | 91.69787 | 34239 ft | 462 kts | 289° |
| 2026-04-28 05:10 | 43.33751 | 91.61362 | 34252 ft | 463 kts | 289° |
| 2026-04-28 05:11 | 43.35675 | 91.52966 | 34237 ft | 462 kts | 289° |
| 2026-04-28 05:11 | 43.37585 | 91.44604 | 34237 ft | 462 kts | 289° |
| 2026-04-28 05:12 | 43.39485 | 91.36251 | 34250 ft | 462 kts | 289° |
| 2026-04-28 05:12 | 43.41399 | 91.27800 | 34248 ft | 462 kts | 289° |
| 2026-04-28 05:13 | 43.43287 | 91.19415 | 34260 ft | 461 kts | 289° |
| 2026-04-28 05:13 | 43.45171 | 91.11018 | 34097 ft | 457 kts | 289° |
| 2026-04-28 05:13 | 43.46090 | 91.06908 | 33750 ft | 450 kts | 289° |
| 2026-04-28 05:14 | 43.47012 | 91.02776 | 33346 ft | 443 kts | 289° |
| 2026-04-28 05:14 | 43.47900 | 90.98789 | 32955 ft | 436 kts | 289° |
| 2026-04-28 05:14 | 43.48784 | 90.94817 | 32555 ft | 430 kts | 289° |
| 2026-04-28 05:14 | 43.49649 | 90.90923 | 32165 ft | 427 kts | 289° |
| 2026-04-28 05:15 | 43.50510 | 90.87038 | 31769 ft | 427 kts | 289° |
| 2026-04-28 05:15 | 43.51371 | 90.83152 | 31371 ft | 426 kts | 288° |
| 2026-04-28 05:15 | 43.52226 | 90.79279 | 30975 ft | 423 kts | 288° |
| 2026-04-28 05:15 | 43.53080 | 90.75406 | 30573 ft | 420 kts | 288° |
| 2026-04-28 05:16 | 43.53928 | 90.71555 | 30179 ft | 417 kts | 288° |
| 2026-04-28 05:16 | 43.54758 | 90.67773 | 29792 ft | 415 kts | 288° |
| 2026-04-28 05:16 | 43.55582 | 90.64015 | 29397 ft | 413 kts | 288° |
| 2026-04-28 05:17 | 43.57231 | 90.56477 | 28611 ft | 408 kts | 288° |
| 2026-04-28 05:17 | 43.58037 | 90.52782 | 28222 ft | 406 kts | 288° |
| 2026-04-28 05:17 | 43.58853 | 90.49037 | 27829 ft | 404 kts | 288° |
| 2026-04-28 05:17 | 43.59645 | 90.45393 | 27444 ft | 402 kts | 288° |
| 2026-04-28 05:18 | 43.60451 | 90.41676 | 27048 ft | 400 kts | 288° |
| 2026-04-28 05:18 | 43.61238 | 90.38043 | 26662 ft | 398 kts | 288° |
| 2026-04-28 05:18 | 43.62024 | 90.34409 | 26271 ft | 395 kts | 288° |
| 2026-04-28 05:18 | 43.62801 | 90.30811 | 25892 ft | 394 kts | 288° |
| 2026-04-28 05:19 | 43.63586 | 90.27165 | 25499 ft | 392 kts | 287° |
| 2026-04-28 05:19 | 43.64352 | 90.23608 | 25118 ft | 390 kts | 288° |
| 2026-04-28 05:19 | 43.65114 | 90.20058 | 24734 ft | 387 kts | 287° |
| 2026-04-28 05:19 | 43.65880 | 90.16487 | 24340 ft | 385 kts | 287° |
| 2026-04-28 05:20 | 43.66661 | 90.13004 | 23947 ft | 382 kts | 291° |
| 2026-04-28 05:20 | 43.67702 | 90.09624 | 23552 ft | 380 kts | 297° |
| 2026-04-28 05:20 | 43.68991 | 90.06519 | 23166 ft | 377 kts | 303° |
| 2026-04-28 05:20 | 43.70554 | 90.03611 | 22777 ft | 376 kts | 310° |
| 2026-04-28 05:21 | 43.72311 | 90.00945 | 22390 ft | 375 kts | 313° |
| 2026-04-28 05:21 | 43.74077 | 89.98352 | 22005 ft | 372 kts | 313° |
| 2026-04-28 05:21 | 43.75856 | 89.95729 | 21616 ft | 370 kts | 313° |
| 2026-04-28 05:21 | 43.77600 | 89.93142 | 21233 ft | 368 kts | 313° |
| 2026-04-28 05:22 | 43.79331 | 89.90562 | 20850 ft | 366 kts | 313° |
| 2026-04-28 05:22 | 43.81065 | 89.87968 | 20467 ft | 364 kts | 313° |
| 2026-04-28 05:22 | 43.82750 | 89.85442 | 20088 ft | 360 kts | 313° |
| 2026-04-28 05:22 | 43.84439 | 89.82906 | 19707 ft | 355 kts | 313° |
| 2026-04-28 05:23 | 43.86103 | 89.80404 | 19327 ft | 351 kts | 313° |
| 2026-04-28 05:23 | 43.87732 | 89.77950 | 18951 ft | 347 kts | 313° |
| 2026-04-28 05:23 | 43.89354 | 89.75505 | 18571 ft | 343 kts | 313° |
| 2026-04-28 05:23 | 43.90958 | 89.73083 | 18195 ft | 341 kts | 313° |
| 2026-04-28 05:24 | 43.92564 | 89.70658 | 17816 ft | 340 kts | 313° |
| 2026-04-28 05:24 | 43.94147 | 89.68265 | 17437 ft | 338 kts | 313° |
| 2026-04-28 05:24 | 43.95684 | 89.65784 | 17054 ft | 335 kts | 308° |
| 2026-04-28 05:24 | 43.97001 | 89.63128 | 16669 ft | 332 kts | 302° |
| 2026-04-28 05:25 | 43.98085 | 89.60330 | 16290 ft | 330 kts | 296° |
| 2026-04-28 05:25 | 43.98947 | 89.57372 | 15910 ft | 329 kts | 290° |
| 2026-04-28 05:25 | 43.99564 | 89.54356 | 15537 ft | 328 kts | 284° |
| 2026-04-28 05:25 | 43.99973 | 89.51240 | 15156 ft | 327 kts | 281° |
| 2026-04-28 05:26 | 44.00338 | 89.48165 | 14787 ft | 324 kts | 281° |
| 2026-04-28 05:26 | 44.00698 | 89.45093 | 14427 ft | 320 kts | 281° |
| 2026-04-28 05:26 | 44.01048 | 89.42067 | 14163 ft | 313 kts | 281° |
| 2026-04-28 05:26 | 44.01384 | 89.39152 | 13915 ft | 307 kts | 281° |
| 2026-04-28 05:27 | 44.01716 | 89.36256 | 13663 ft | 300 kts | 281° |
| 2026-04-28 05:27 | 44.02042 | 89.33416 | 13415 ft | 294 kts | 281° |
| 2026-04-28 05:27 | 44.02357 | 89.30658 | 13170 ft | 291 kts | 281° |
| 2026-04-28 05:27 | 44.02673 | 89.27885 | 12926 ft | 291 kts | 281° |
| 2026-04-28 05:28 | 44.02991 | 89.25095 | 12676 ft | 291 kts | 280° |
| 2026-04-28 05:28 | 44.03303 | 89.22343 | 12432 ft | 290 kts | 280° |
| 2026-04-28 05:28 | 44.03618 | 89.19569 | 12187 ft | 290 kts | 280° |
| 2026-04-28 05:28 | 44.03929 | 89.16811 | 11943 ft | 290 kts | 280° |
| 2026-04-28 05:29 | 44.04242 | 89.14035 | 11696 ft | 290 kts | 280° |
| 2026-04-28 05:29 | 44.04552 | 89.11277 | 11453 ft | 290 kts | 280° |
| 2026-04-28 05:29 | 44.04860 | 89.08534 | 11209 ft | 288 kts | 280° |
| 2026-04-28 05:29 | 44.05168 | 89.05782 | 10967 ft | 288 kts | 279° |
| 2026-04-28 05:30 | 44.05476 | 89.03027 | 10727 ft | 289 kts | 279° |
| 2026-04-28 05:30 | 44.05784 | 89.00263 | 10480 ft | 288 kts | 279° |
| 2026-04-28 05:30 | 44.06087 | 88.97537 | 10246 ft | 288 kts | 279° |
| 2026-04-28 05:30 | 44.06392 | 88.94788 | 10007 ft | 287 kts | 279° |
| 2026-04-28 05:31 | 44.06693 | 88.92075 | 9773 ft | 287 kts | 279° |
| 2026-04-28 05:31 | 44.06995 | 88.89336 | 9534 ft | 287 kts | 279° |
| 2026-04-28 05:31 | 44.07298 | 88.86586 | 9298 ft | 286 kts | 279° |
| 2026-04-28 05:31 | 44.07596 | 88.83882 | 9067 ft | 286 kts | 279° |
| 2026-04-28 05:32 | 44.07917 | 88.81133 | 8830 ft | 286 kts | 279° |
| 2026-04-28 05:32 | 44.08238 | 88.78432 | 8594 ft | 285 kts | 280° |
| 2026-04-28 05:32 | 44.08557 | 88.75716 | 8356 ft | 284 kts | 280° |
| 2026-04-28 05:32 | 44.08872 | 88.73029 | 8120 ft | 284 kts | 280° |
| 2026-04-28 05:33 | 44.09189 | 88.70310 | 7985 ft | 282 kts | 279° |
| 2026-04-28 05:33 | 44.09501 | 88.67628 | 7971 ft | 284 kts | 280° |
| 2026-04-28 05:33 | 44.09817 | 88.64905 | 7989 ft | 284 kts | 280° |
| 2026-04-28 05:33 | 44.10133 | 88.62182 | 7996 ft | 284 kts | 280° |
| 2026-04-28 05:34 | 44.10444 | 88.59491 | 7997 ft | 284 kts | 279° |
| 2026-04-28 05:34 | 44.10758 | 88.56767 | 7998 ft | 285 kts | 280° |
| 2026-04-28 05:34 | 44.11071 | 88.54044 | 7997 ft | 285 kts | 280° |
| 2026-04-28 05:34 | 44.11380 | 88.51360 | 7996 ft | 286 kts | 280° |
| 2026-04-28 05:35 | 44.11695 | 88.48608 | 7998 ft | 286 kts | 280° |
| 2026-04-28 05:35 | 44.12008 | 88.45869 | 8000 ft | 286 kts | 279° |
| 2026-04-28 05:35 | 44.12004 | 88.43147 | 7995 ft | 287 kts | 259° |
| 2026-04-28 05:35 | 44.11533 | 88.40424 | 8017 ft | 290 kts | 256° |
| 2026-04-28 05:36 | 44.11019 | 88.37714 | 7935 ft | 287 kts | 256° |
| 2026-04-28 05:36 | 44.10510 | 88.35049 | 7832 ft | 288 kts | 256° |
| 2026-04-28 05:36 | 44.09991 | 88.32337 | 7719 ft | 288 kts | 255° |
| 2026-04-28 05:36 | 44.09483 | 88.29687 | 7608 ft | 287 kts | 255° |
| 2026-04-28 05:37 | 44.08966 | 88.26993 | 7496 ft | 287 kts | 255° |
| 2026-04-28 05:37 | 44.08449 | 88.24297 | 7379 ft | 286 kts | 255° |
| 2026-04-28 05:37 | 44.07940 | 88.21652 | 7256 ft | 287 kts | 255° |
| 2026-04-28 05:37 | 44.07425 | 88.18978 | 7133 ft | 286 kts | 255° |
| 2026-04-28 05:38 | 44.06911 | 88.16315 | 7006 ft | 285 kts | 255° |
| 2026-04-28 05:38 | 44.06399 | 88.13661 | 6878 ft | 281 kts | 255° |
| 2026-04-28 05:38 | 44.05896 | 88.11065 | 6749 ft | 271 kts | 255° |
| 2026-04-28 05:38 | 44.05419 | 88.08604 | 6621 ft | 263 kts | 255° |
| 2026-04-28 05:39 | 44.04951 | 88.06188 | 6493 ft | 256 kts | 255° |
| 2026-04-28 05:39 | 44.04488 | 88.03806 | 6371 ft | 256 kts | 255° |
| 2026-04-28 05:39 | 44.04023 | 88.01408 | 6243 ft | 256 kts | 255° |
| 2026-04-28 05:39 | 44.03559 | 87.99024 | 6115 ft | 255 kts | 255° |
| 2026-04-28 05:40 | 44.03096 | 87.96648 | 5992 ft | 254 kts | 255° |
| 2026-04-28 05:40 | 44.02636 | 87.94290 | 5870 ft | 255 kts | 255° |
| 2026-04-28 05:40 | 44.02171 | 87.91911 | 5745 ft | 252 kts | 255° |
| 2026-04-28 05:40 | 44.01724 | 87.89626 | 5618 ft | 243 kts | 255° |
| 2026-04-28 05:41 | 44.01280 | 87.87394 | 5492 ft | 234 kts | 254° |
| 2026-04-28 05:41 | 44.00821 | 87.85269 | 5370 ft | 229 kts | 253° |
| 2026-04-28 05:41 | 44.00359 | 87.83127 | 5248 ft | 230 kts | 253° |
| 2026-04-28 05:41 | 43.99900 | 87.80984 | 5131 ft | 230 kts | 253° |
| 2026-04-28 05:42 | 43.99444 | 87.78848 | 5010 ft | 231 kts | 253° |
| 2026-04-28 05:42 | 43.98997 | 87.76757 | 4957 ft | 222 kts | 253° |
| 2026-04-28 05:42 | 43.98573 | 87.74783 | 4948 ft | 209 kts | 253° |
| 2026-04-28 05:42 | 43.98166 | 87.72859 | 4956 ft | 209 kts | 253° |
| 2026-04-28 05:43 | 43.97763 | 87.70933 | 4937 ft | 199 kts | 254° |
| 2026-04-28 05:43 | 43.97398 | 87.69180 | 4938 ft | 186 kts | 254° |
| 2026-04-28 05:43 | 43.97042 | 87.67485 | 4747 ft | 176 kts | 254° |
| 2026-04-28 05:43 | 43.96704 | 87.65881 | 4537 ft | 174 kts | 253° |
| 2026-04-28 05:44 | 43.96365 | 87.64276 | 4325 ft | 174 kts | 253° |
| 2026-04-28 05:44 | 43.96026 | 87.62675 | 4101 ft | 172 kts | 253° |
| 2026-04-28 05:44 | 43.95690 | 87.61086 | 3880 ft | 172 kts | 253° |
| 2026-04-28 05:44 | 43.95356 | 87.59512 | 3654 ft | 171 kts | 253° |
| 2026-04-28 05:45 | 43.95020 | 87.57925 | 3428 ft | 171 kts | 253° |
| 2026-04-28 05:45 | 43.94684 | 87.56342 | 3190 ft | 172 kts | 253° |
| 2026-04-28 05:45 | 43.94347 | 87.54762 | 2932 ft | 169 kts | 253° |
| 2026-04-28 05:45 | 43.94030 | 87.53220 | 2671 ft | 166 kts | 254° |
| 2026-04-28 05:46 | 43.93695 | 87.51699 | 2485 ft | 164 kts | 253° |
| 2026-04-28 05:46 | 43.93371 | 87.50187 | 2322 ft | 162 kts | 255° |
| 2026-04-28 05:46 | 43.93057 | 87.48690 | 2163 ft | 159 kts | 255° |
| 2026-04-28 05:46 | 43.92865 | 87.47747 | 2144 ft | 139 kts | 253° |
| 2026-04-28 05:47 | 43.92594 | 87.46509 | 2144 ft | 34 kts | 252° |
| 2026-04-28 05:47 | 43.92554 | 87.46393 | 2144 ft | 10 kts | 236° |
| 2026-04-28 05:47 | 43.92516 | 87.46317 | 2144 ft | 9 kts | 234° |
| 2026-04-28 05:47 | 43.92476 | 87.46254 | 2144 ft | 8 kts | 227° |
| 2026-04-28 05:48 | 43.92437 | 87.46199 | 2144 ft | 7 kts | 220° |
| 2026-04-28 05:48 | 43.92392 | 87.46191 | 2144 ft | 6 kts | 158° |
| 2026-04-28 05:48 | 43.92366 | 87.46239 | 2144 ft | 6 kts | 102° |
| 2026-04-28 05:48 | 43.92371 | 87.46298 | 2144 ft | 5 kts | 76° |
| 2026-04-28 05:49 | 43.92376 | 87.46349 | 2144 ft | 5 kts | 99° |
| 2026-04-28 05:49 | 43.92356 | 87.46385 | 2144 ft | 4 kts | 156° |
| 2026-04-28 05:49 | 43.92325 | 87.46398 | 2144 ft | 4 kts | 167° |
| 2026-04-28 05:49 | 43.92286 | 87.46408 | 2144 ft | 6 kts | 166° |
| 2026-04-28 05:50 | 43.92236 | 87.46426 | 2144 ft | 8 kts | 164° |
| 2026-04-28 05:50 | 43.92178 | 87.46450 | 2145 ft | 9 kts | 162° |
| 2026-04-28 05:50 | 43.92126 | 87.46472 | 2145 ft | 4 kts | 163° |
| 2026-04-28 05:50 | 43.92093 | 87.46487 | 2145 ft | 5 kts | 158° |
| 2026-04-28 05:51 | 43.92068 | 87.46536 | 2145 ft | 7 kts | 96° |
| 2026-04-28 05:51 | 43.92079 | 87.46612 | 2145 ft | 8 kts | 74° |
| 2026-04-28 05:51 | 43.92097 | 87.46699 | 2145 ft | 10 kts | 74° |
| 2026-04-28 05:51 | 43.92119 | 87.46798 | 2145 ft | 11 kts | 73° |
| 2026-04-28 05:52 | 43.92142 | 87.46905 | 2145 ft | 12 kts | 73° |
| 2026-04-28 05:52 | 43.92166 | 87.47022 | 2145 ft | 12 kts | 76° |
| 2026-04-28 05:52 | 43.92192 | 87.47144 | 2145 ft | 13 kts | 74° |
| 2026-04-28 05:52 | 43.92220 | 87.47274 | 2144 ft | 14 kts | 73° |
| 2026-04-28 05:53 | 43.92250 | 87.47409 | 2144 ft | 14 kts | 74° |
| 2026-04-28 05:53 | 43.92279 | 87.47549 | 2144 ft | 15 kts | 74° |
| 2026-04-28 05:53 | 43.92295 | 87.47626 | 2144 ft | 4 kts | 74° |
| 2026-04-28 05:53 | 43.92305 | 87.47671 | 2144 ft | 1 kts | 74° |
| 2026-04-28 05:54 | 43.92310 | 87.47694 | 2144 ft | 3 kts | 74° |
| 2026-04-28 05:54 | 43.92318 | 87.47732 | 2144 ft | 5 kts | 74° |
| 2026-04-28 05:54 | 43.92328 | 87.47782 | 2144 ft | 3 kts | 74° |
| 2026-04-28 05:54 | 43.92337 | 87.47823 | 2144 ft | 5 kts | 74° |
| 2026-04-28 05:55 | 43.92349 | 87.47882 | 2144 ft | 7 kts | 73° |
| 2026-04-28 05:55 | 43.92359 | 87.47928 | 2144 ft | 8 kts | 73° |
| 2026-04-28 05:55 | 43.92383 | 87.48039 | 2144 ft | 9 kts | 73° |
| 2026-04-28 05:56 | 43.92426 | 87.48241 | 2144 ft | 11 kts | 74° |
| 2026-04-28 05:56 | 43.92450 | 87.48355 | 2144 ft | 12 kts | 74° |
| 2026-04-28 05:56 | 43.92476 | 87.48477 | 2144 ft | 13 kts | 74° |
| 2026-04-28 05:56 | 43.92497 | 87.48573 | 2144 ft | 9 kts | 74° |
| 2026-04-28 05:57 | 43.92474 | 87.48652 | 2144 ft | 10 kts | 146° |
| 2026-04-28 05:57 | 43.92402 | 87.48687 | 2144 ft | 11 kts | 163° |
| 2026-04-28 05:57 | 43.92322 | 87.48721 | 2144 ft | 12 kts | 163° |
| 2026-04-28 05:57 | 43.92235 | 87.48756 | 2144 ft | 13 kts | 164° |
| 2026-04-28 05:58 | 43.92145 | 87.48795 | 2145 ft | 14 kts | 163° |
| 2026-04-28 05:58 | 43.92049 | 87.48835 | 2145 ft | 14 kts | 163° |
| 2026-04-28 05:58 | 43.91949 | 87.48875 | 2145 ft | 15 kts | 164° |
| 2026-04-28 05:58 | 43.91846 | 87.48918 | 2145 ft | 15 kts | 163° |
| 2026-04-28 05:59 | 43.91741 | 87.48961 | 2145 ft | 16 kts | 164° |
| 2026-04-28 05:59 | 43.91633 | 87.49004 | 2145 ft | 16 kts | 163° |
| 2026-04-28 05:59 | 43.91523 | 87.49050 | 2146 ft | 12 kts | 163° |
| 2026-04-28 05:59 | 43.91459 | 87.49079 | 2146 ft | 8 kts | 152° |
| 2026-04-28 06:00 | 43.91439 | 87.49145 | 2146 ft | 7 kts | 84° |
| 2026-04-28 06:00 | 43.91437 | 87.49219 | 2146 ft | 6 kts | 128° |
| 2026-04-28 06:00 | 43.91409 | 87.49243 | 2146 ft | 5 kts | 160° |
| 2026-04-28 06:00 | 43.91382 | 87.49254 | 2146 ft | 2 kts | 163° |
| 2026-04-28 06:01 | 43.91380 | 87.49255 | 2146 ft | 0 kts | 163° |